sensor_id;sensor_type;location;lat;lon;timestamp;temperature;humidity
7574;DHT22;3828;48.922;9.116;2022-10-16T00:01:05;16.80;99.90
7574;DHT22;3828;48.922;9.116;2022-10-16T00:03:32;15.70;99.90
7574;DHT22;3828;48.922;9.116;2022-10-16T00:05:59;15.70;99.90
7574;DHT22;3828;48.922;9.116;2022-10-16T00:08:28;15.80;99.90
7574;DHT22;3828;48.922;9.116;2022-10-16T00:10:59;15.80;99.90
7574;DHT22;3828;48.922;9.116;2022-10-16T00:13:26;15.80;99.90
7574;DHT22;3828;48.922;9.116;2022-10-16T00:15:55;16.30;99.90
7574;DHT22;3828;48.922;9.116;2022-10-16T00:18:22;16.50;99.90
7574;DHT22;3828;48.922;9.116;2022-10-16T00:20:49;15.70;99.90
7574;DHT22;3828;48.922;9.116;2022-10-16T00:23:16;15.80;99.90
7574;DHT22;3828;48.922;9.116;2022-10-16T00:25:44;16.60;99.90
7574;DHT22;3828;48.922;9.116;2022-10-16T00:28:11;15.60;99.90
7574;DHT22;3828;48.922;9.116;2022-10-16T00:30:38;15.70;99.90
7574;DHT22;3828;48.922;9.116;2022-10-16T00:33:04;15.60;99.90
7574;DHT22;3828;48.922;9.116;2022-10-16T00:35:31;15.50;99.90
7574;DHT22;3828;48.922;9.116;2022-10-16T00:37:58;15.60;99.90
7574;DHT22;3828;48.922;9.116;2022-10-16T00:40:25;15.50;99.90
7574;DHT22;3828;48.922;9.116;2022-10-16T00:42:55;15.50;99.90
7574;DHT22;3828;48.922;9.116;2022-10-16T00:45:21;15.70;99.90
7574;DHT22;3828;48.922;9.116;2022-10-16T00:47:49;15.40;99.90
7574;DHT22;3828;48.922;9.116;2022-10-16T00:50:22;15.40;99.90
7574;DHT22;3828;48.922;9.116;2022-10-16T00:52:51;18.40;99.90
7574;DHT22;3828;48.922;9.116;2022-10-16T00:55:19;15.50;99.90
7574;DHT22;3828;48.922;9.116;2022-10-16T00:57:46;15.40;99.90
7574;DHT22;3828;48.922;9.116;2022-10-16T01:00:18;15.50;99.90
7574;DHT22;3828;48.922;9.116;2022-10-16T01:02:51;15.50;99.90
7574;DHT22;3828;48.922;9.116;2022-10-16T01:05:18;15.50;99.90
7574;DHT22;3828;48.922;9.116;2022-10-16T01:07:51;19.50;99.90
7574;DHT22;3828;48.922;9.116;2022-10-16T01:10:26;15.60;99.90
7574;DHT22;3828;48.922;9.116;2022-10-16T01:12:59;17.80;99.90
7574;DHT22;3828;48.922;9.116;2022-10-16T01:15:31;15.60;99.90
7574;DHT22;3828;48.922;9.116;2022-10-16T01:18:03;15.60;99.90
7574;DHT22;3828;48.922;9.116;2022-10-16T01:20:35;15.70;99.90
7574;DHT22;3828;48.922;9.116;2022-10-16T01:23:21;18.70;99.90
7574;DHT22;3828;48.922;9.116;2022-10-16T01:26:08;15.60;99.90
7574;DHT22;3828;48.922;9.116;2022-10-16T01:28:41;15.60;99.90
7574;DHT22;3828;48.922;9.116;2022-10-16T01:31:10;15.70;99.90
7574;DHT22;3828;48.922;9.116;2022-10-16T01:33:42;15.70;99.90
7574;DHT22;3828;48.922;9.116;2022-10-16T01:36:13;17.80;99.90
7574;DHT22;3828;48.922;9.116;2022-10-16T01:38:44;15.70;99.90
7574;DHT22;3828;48.922;9.116;2022-10-16T01:41:15;15.70;99.90
7574;DHT22;3828;48.922;9.116;2022-10-16T01:43:48;16.00;99.90
7574;DHT22;3828;48.922;9.116;2022-10-16T01:46:18;15.70;99.90
7574;DHT22;3828;48.922;9.116;2022-10-16T01:48:47;15.70;99.90
7574;DHT22;3828;48.922;9.116;2022-10-16T01:51:16;16.70;99.90
7574;DHT22;3828;48.922;9.116;2022-10-16T01:53:47;15.80;99.90
7574;DHT22;3828;48.922;9.116;2022-10-16T01:56:17;15.90;99.90
7574;DHT22;3828;48.922;9.116;2022-10-16T01:58:49;15.80;99.90
7574;DHT22;3828;48.922;9.116;2022-10-16T02:01:19;15.80;99.90
7574;DHT22;3828;48.922;9.116;2022-10-16T02:03:50;15.80;99.90
7574;DHT22;3828;48.922;9.116;2022-10-16T02:06:18;15.80;99.90
7574;DHT22;3828;48.922;9.116;2022-10-16T02:08:46;16.80;99.90
7574;DHT22;3828;48.922;9.116;2022-10-16T02:11:13;15.90;99.90
7574;DHT22;3828;48.922;9.116;2022-10-16T02:13:43;15.90;99.90
7574;DHT22;3828;48.922;9.116;2022-10-16T02:16:13;15.90;99.90
7574;DHT22;3828;48.922;9.116;2022-10-16T02:18:41;15.90;99.90
7574;DHT22;3828;48.922;9.116;2022-10-16T02:21:15;15.90;99.90
7574;DHT22;3828;48.922;9.116;2022-10-16T02:23:51;17.30;99.90
7574;DHT22;3828;48.922;9.116;2022-10-16T02:26:27;15.90;99.90
7574;DHT22;3828;48.922;9.116;2022-10-16T02:28:59;15.90;99.90
7574;DHT22;3828;48.922;9.116;2022-10-16T02:31:31;16.60;99.90
7574;DHT22;3828;48.922;9.116;2022-10-16T02:34:00;16.20;99.90
7574;DHT22;3828;48.922;9.116;2022-10-16T02:36:27;17.20;99.90
7574;DHT22;3828;48.922;9.116;2022-10-16T02:38:54;15.90;99.90
7574;DHT22;3828;48.922;9.116;2022-10-16T02:41:22;15.80;99.90
7574;DHT22;3828;48.922;9.116;2022-10-16T02:43:50;15.90;99.90
7574;DHT22;3828;48.922;9.116;2022-10-16T02:46:17;18.50;99.90
7574;DHT22;3828;48.922;9.116;2022-10-16T02:48:46;15.80;99.90
7574;DHT22;3828;48.922;9.116;2022-10-16T02:51:13;15.80;99.90
7574;DHT22;3828;48.922;9.116;2022-10-16T02:53:40;16.00;99.90
7574;DHT22;3828;48.922;9.116;2022-10-16T02:56:07;18.80;99.90
7574;DHT22;3828;48.922;9.116;2022-10-16T02:58:33;15.80;99.90
7574;DHT22;3828;48.922;9.116;2022-10-16T03:01:00;15.70;99.90
7574;DHT22;3828;48.922;9.116;2022-10-16T03:03:27;15.70;99.90
7574;DHT22;3828;48.922;9.116;2022-10-16T03:05:55;16.00;99.90
7574;DHT22;3828;48.922;9.116;2022-10-16T03:08:22;18.00;99.90
7574;DHT22;3828;48.922;9.116;2022-10-16T03:10:50;18.20;99.90
7574;DHT22;3828;48.922;9.116;2022-10-16T03:13:17;16.20;99.90
7574;DHT22;3828;48.922;9.116;2022-10-16T03:15:46;15.70;99.90
7574;DHT22;3828;48.922;9.116;2022-10-16T03:18:13;15.60;99.90
7574;DHT22;3828;48.922;9.116;2022-10-16T03:20:39;18.60;99.90
7574;DHT22;3828;48.922;9.116;2022-10-16T03:23:08;16.10;99.90
7574;DHT22;3828;48.922;9.116;2022-10-16T03:25:35;16.10;99.90
7574;DHT22;3828;48.922;9.116;2022-10-16T03:28:02;15.60;99.90
7574;DHT22;3828;48.922;9.116;2022-10-16T03:30:29;15.50;99.90
7574;DHT22;3828;48.922;9.116;2022-10-16T03:32:55;15.40;99.90
7574;DHT22;3828;48.922;9.116;2022-10-16T03:35:23;19.10;99.90
7574;DHT22;3828;48.922;9.116;2022-10-16T03:37:50;15.40;99.90
7574;DHT22;3828;48.922;9.116;2022-10-16T03:40:19;15.30;99.90
7574;DHT22;3828;48.922;9.116;2022-10-16T03:42:45;15.40;99.90
7574;DHT22;3828;48.922;9.116;2022-10-16T03:45:12;15.30;99.90
7574;DHT22;3828;48.922;9.116;2022-10-16T03:47:39;15.30;99.90
7574;DHT22;3828;48.922;9.116;2022-10-16T03:50:07;15.30;99.90
7574;DHT22;3828;48.922;9.116;2022-10-16T03:52:34;15.30;99.90
7574;DHT22;3828;48.922;9.116;2022-10-16T03:55:01;15.30;99.90
7574;DHT22;3828;48.922;9.116;2022-10-16T03:57:29;15.30;99.90
7574;DHT22;3828;48.922;9.116;2022-10-16T03:59:56;17.60;99.90
7574;DHT22;3828;48.922;9.116;2022-10-16T04:02:22;16.10;99.90
7574;DHT22;3828;48.922;9.116;2022-10-16T04:04:49;15.30;99.90
7574;DHT22;3828;48.922;9.116;2022-10-16T04:07:16;15.50;99.90
7574;DHT22;3828;48.922;9.116;2022-10-16T04:09:43;15.20;99.90
7574;DHT22;3828;48.922;9.116;2022-10-16T04:12:09;15.20;99.90
7574;DHT22;3828;48.922;9.116;2022-10-16T04:14:37;15.10;99.90
7574;DHT22;3828;48.922;9.116;2022-10-16T04:17:04;15.10;99.90
7574;DHT22;3828;48.922;9.116;2022-10-16T04:19:31;15.10;99.90
7574;DHT22;3828;48.922;9.116;2022-10-16T04:21:58;16.90;99.90
7574;DHT22;3828;48.922;9.116;2022-10-16T04:24:24;15.00;99.90
7574;DHT22;3828;48.922;9.116;2022-10-16T04:26:51;15.00;99.90
7574;DHT22;3828;48.922;9.116;2022-10-16T04:29:18;18.20;99.90
7574;DHT22;3828;48.922;9.116;2022-10-16T04:31:46;15.00;99.90
7574;DHT22;3828;48.922;9.116;2022-10-16T04:34:13;15.00;99.90
7574;DHT22;3828;48.922;9.116;2022-10-16T04:36:40;15.00;99.90
7574;DHT22;3828;48.922;9.116;2022-10-16T04:39:07;15.90;99.90
7574;DHT22;3828;48.922;9.116;2022-10-16T04:41:34;15.00;99.90
7574;DHT22;3828;48.922;9.116;2022-10-16T04:44:00;15.00;99.90
7574;DHT22;3828;48.922;9.116;2022-10-16T04:46:27;15.00;99.90
7574;DHT22;3828;48.922;9.116;2022-10-16T04:48:55;15.00;99.90
7574;DHT22;3828;48.922;9.116;2022-10-16T04:51:22;15.00;99.90
7574;DHT22;3828;48.922;9.116;2022-10-16T04:53:51;15.00;99.90
7574;DHT22;3828;48.922;9.116;2022-10-16T04:56:17;14.90;99.90
7574;DHT22;3828;48.922;9.116;2022-10-16T04:58:44;14.90;99.90
7574;DHT22;3828;48.922;9.116;2022-10-16T05:01:11;14.80;99.90
7574;DHT22;3828;48.922;9.116;2022-10-16T05:03:38;14.80;99.90
7574;DHT22;3828;48.922;9.116;2022-10-16T05:06:06;14.90;99.90
7574;DHT22;3828;48.922;9.116;2022-10-16T05:08:33;14.70;99.90
7574;DHT22;3828;48.922;9.116;2022-10-16T05:11:00;14.70;99.90
7574;DHT22;3828;48.922;9.116;2022-10-16T05:13:27;14.70;99.90
7574;DHT22;3828;48.922;9.116;2022-10-16T05:15:54;14.70;99.90
7574;DHT22;3828;48.922;9.116;2022-10-16T05:18:21;14.70;99.90
7574;DHT22;3828;48.922;9.116;2022-10-16T05:20:47;14.70;99.90
7574;DHT22;3828;48.922;9.116;2022-10-16T05:23:16;14.60;99.90
7574;DHT22;3828;48.922;9.116;2022-10-16T05:25:42;14.90;99.90
7574;DHT22;3828;48.922;9.116;2022-10-16T05:28:09;16.20;99.90
7574;DHT22;3828;48.922;9.116;2022-10-16T05:30:37;14.60;99.90
7574;DHT22;3828;48.922;9.116;2022-10-16T05:33:05;14.60;99.90
7574;DHT22;3828;48.922;9.116;2022-10-16T05:35:31;15.80;99.90
7574;DHT22;3828;48.922;9.116;2022-10-16T05:37:58;14.50;99.90
7574;DHT22;3828;48.922;9.116;2022-10-16T05:40:26;14.50;99.90
7574;DHT22;3828;48.922;9.116;2022-10-16T05:42:55;14.50;99.90
7574;DHT22;3828;48.922;9.116;2022-10-16T05:45:22;14.50;99.90
7574;DHT22;3828;48.922;9.116;2022-10-16T05:47:49;14.70;99.90
7574;DHT22;3828;48.922;9.116;2022-10-16T05:50:16;16.80;99.90
7574;DHT22;3828;48.922;9.116;2022-10-16T05:52:43;14.50;99.90
7574;DHT22;3828;48.922;9.116;2022-10-16T05:55:09;14.40;99.90
7574;DHT22;3828;48.922;9.116;2022-10-16T05:57:38;14.50;99.90
7574;DHT22;3828;48.922;9.116;2022-10-16T06:00:05;14.40;99.90
7574;DHT22;3828;48.922;9.116;2022-10-16T06:02:32;14.50;99.90
7574;DHT22;3828;48.922;9.116;2022-10-16T06:04:59;17.90;99.90
7574;DHT22;3828;48.922;9.116;2022-10-16T06:07:26;14.50;99.90
7574;DHT22;3828;48.922;9.116;2022-10-16T06:09:53;14.60;99.90
7574;DHT22;3828;48.922;9.116;2022-10-16T06:12:21;14.60;99.90
7574;DHT22;3828;48.922;9.116;2022-10-16T06:14:51;14.60;99.90
7574;DHT22;3828;48.922;9.116;2022-10-16T06:17:18;14.60;99.90
7574;DHT22;3828;48.922;9.116;2022-10-16T06:19:45;15.00;99.90
7574;DHT22;3828;48.922;9.116;2022-10-16T06:22:12;14.60;99.90
7574;DHT22;3828;48.922;9.116;2022-10-16T06:24:39;14.90;99.90
7574;DHT22;3828;48.922;9.116;2022-10-16T06:27:06;14.70;99.90
7574;DHT22;3828;48.922;9.116;2022-10-16T06:29:32;15.80;99.90
7574;DHT22;3828;48.922;9.116;2022-10-16T06:32:01;15.50;99.90
7574;DHT22;3828;48.922;9.116;2022-10-16T06:34:27;14.70;99.90
7574;DHT22;3828;48.922;9.116;2022-10-16T06:36:54;11.70;99.90
7574;DHT22;3828;48.922;9.116;2022-10-16T06:39:21;14.70;99.90
7574;DHT22;3828;48.922;9.116;2022-10-16T06:41:48;14.80;99.90
7574;DHT22;3828;48.922;9.116;2022-10-16T06:44:15;14.80;99.90
7574;DHT22;3828;48.922;9.116;2022-10-16T06:46:41;14.90;99.90
7574;DHT22;3828;48.922;9.116;2022-10-16T06:49:10;14.90;99.90
7574;DHT22;3828;48.922;9.116;2022-10-16T06:51:36;15.00;99.90
7574;DHT22;3828;48.922;9.116;2022-10-16T06:54:06;15.30;99.90
7574;DHT22;3828;48.922;9.116;2022-10-16T06:56:33;15.10;99.90
7574;DHT22;3828;48.922;9.116;2022-10-16T06:59:00;15.10;99.90
7574;DHT22;3828;48.922;9.116;2022-10-16T07:01:28;15.20;99.90
7574;DHT22;3828;48.922;9.116;2022-10-16T07:03:55;17.20;99.90
7574;DHT22;3828;48.922;9.116;2022-10-16T07:06:25;18.00;99.90
7574;DHT22;3828;48.922;9.116;2022-10-16T07:08:53;15.50;99.90
7574;DHT22;3828;48.922;9.116;2022-10-16T07:11:21;15.50;99.90
7574;DHT22;3828;48.922;9.116;2022-10-16T07:13:49;15.50;99.90
7574;DHT22;3828;48.922;9.116;2022-10-16T07:16:18;15.60;99.90
7574;DHT22;3828;48.922;9.116;2022-10-16T07:18:45;15.60;99.90
7574;DHT22;3828;48.922;9.116;2022-10-16T07:21:15;15.60;99.90
7574;DHT22;3828;48.922;9.116;2022-10-16T07:23:44;15.60;99.90
7574;DHT22;3828;48.922;9.116;2022-10-16T07:26:10;14.90;99.90
7574;DHT22;3828;48.922;9.116;2022-10-16T07:28:38;19.20;99.90
7574;DHT22;3828;48.922;9.116;2022-10-16T07:31:07;15.60;99.90
7574;DHT22;3828;48.922;9.116;2022-10-16T07:33:36;15.60;99.90
7574;DHT22;3828;48.922;9.116;2022-10-16T07:36:04;15.50;99.90
7574;DHT22;3828;48.922;9.116;2022-10-16T07:38:31;15.50;99.90
7574;DHT22;3828;48.922;9.116;2022-10-16T07:41:01;16.40;99.90
7574;DHT22;3828;48.922;9.116;2022-10-16T07:43:29;15.80;99.90
7574;DHT22;3828;48.922;9.116;2022-10-16T07:45:56;15.50;99.90
7574;DHT22;3828;48.922;9.116;2022-10-16T07:48:24;15.60;99.90
7574;DHT22;3828;48.922;9.116;2022-10-16T07:50:56;15.60;99.90
7574;DHT22;3828;48.922;9.116;2022-10-16T07:53:23;15.70;99.90
7574;DHT22;3828;48.922;9.116;2022-10-16T07:55:49;15.70;99.90
7574;DHT22;3828;48.922;9.116;2022-10-16T07:58:18;15.80;99.90
7574;DHT22;3828;48.922;9.116;2022-10-16T08:00:44;19.30;99.90
7574;DHT22;3828;48.922;9.116;2022-10-16T08:03:11;16.10;99.90
7574;DHT22;3828;48.922;9.116;2022-10-16T08:05:38;17.40;99.90
7574;DHT22;3828;48.922;9.116;2022-10-16T08:08:05;16.50;99.90
7574;DHT22;3828;48.922;9.116;2022-10-16T08:10:32;16.70;99.90
7574;DHT22;3828;48.922;9.116;2022-10-16T08:12:59;17.10;99.90
7574;DHT22;3828;48.922;9.116;2022-10-16T08:15:27;17.50;99.90
7574;DHT22;3828;48.922;9.116;2022-10-16T08:17:57;18.00;99.90
7574;DHT22;3828;48.922;9.116;2022-10-16T08:20:24;18.30;99.90
7574;DHT22;3828;48.922;9.116;2022-10-16T08:22:51;18.90;99.90
7574;DHT22;3828;48.922;9.116;2022-10-16T08:25:18;19.50;99.90
7574;DHT22;3828;48.922;9.116;2022-10-16T08:27:45;19.60;99.90
7574;DHT22;3828;48.922;9.116;2022-10-16T08:30:12;20.00;99.90
7574;DHT22;3828;48.922;9.116;2022-10-16T08:32:40;20.90;99.90
7574;DHT22;3828;48.922;9.116;2022-10-16T08:35:08;20.10;99.90
7574;DHT22;3828;48.922;9.116;2022-10-16T08:37:35;19.90;99.90
7574;DHT22;3828;48.922;9.116;2022-10-16T08:40:03;19.70;99.90
7574;DHT22;3828;48.922;9.116;2022-10-16T08:42:41;19.50;99.90
7574;DHT22;3828;48.922;9.116;2022-10-16T08:45:21;19.40;99.90
7574;DHT22;3828;48.922;9.116;2022-10-16T08:48:04;19.30;99.90
7574;DHT22;3828;48.922;9.116;2022-10-16T08:50:37;19.20;99.90
7574;DHT22;3828;48.922;9.116;2022-10-16T08:53:04;19.20;99.90
7574;DHT22;3828;48.922;9.116;2022-10-16T08:55:34;19.20;99.90
7574;DHT22;3828;48.922;9.116;2022-10-16T08:58:11;21.30;99.90
7574;DHT22;3828;48.922;9.116;2022-10-16T09:00:38;18.90;99.90
7574;DHT22;3828;48.922;9.116;2022-10-16T09:03:16;18.90;99.90
7574;DHT22;3828;48.922;9.116;2022-10-16T09:05:54;18.80;99.90
7574;DHT22;3828;48.922;9.116;2022-10-16T09:08:30;18.80;99.90
7574;DHT22;3828;48.922;9.116;2022-10-16T09:11:06;18.80;99.90
7574;DHT22;3828;48.922;9.116;2022-10-16T09:13:41;21.20;99.90
7574;DHT22;3828;48.922;9.116;2022-10-16T09:16:16;18.80;99.90
7574;DHT22;3828;48.922;9.116;2022-10-16T09:18:54;18.80;99.90
7574;DHT22;3828;48.922;9.116;2022-10-16T09:21:25;18.90;99.90
7574;DHT22;3828;48.922;9.116;2022-10-16T09:23:54;19.20;99.90
7574;DHT22;3828;48.922;9.116;2022-10-16T09:26:23;19.70;99.90
7574;DHT22;3828;48.922;9.116;2022-10-16T09:28:51;20.50;99.90
7574;DHT22;3828;48.922;9.116;2022-10-16T09:31:20;21.10;99.90
7574;DHT22;3828;48.922;9.116;2022-10-16T09:33:52;21.90;99.90
7574;DHT22;3828;48.922;9.116;2022-10-16T09:36:20;22.70;99.90
7574;DHT22;3828;48.922;9.116;2022-10-16T09:38:48;23.10;99.90
7574;DHT22;3828;48.922;9.116;2022-10-16T09:41:18;23.60;99.90
7574;DHT22;3828;48.922;9.116;2022-10-16T09:43:52;24.20;99.90
7574;DHT22;3828;48.922;9.116;2022-10-16T09:46:31;24.80;99.90
7574;DHT22;3828;48.922;9.116;2022-10-16T09:49:00;25.50;99.90
7574;DHT22;3828;48.922;9.116;2022-10-16T09:51:29;25.70;99.90
7574;DHT22;3828;48.922;9.116;2022-10-16T09:53:58;26.00;99.90
7574;DHT22;3828;48.922;9.116;2022-10-16T09:56:27;26.40;99.90
7574;DHT22;3828;48.922;9.116;2022-10-16T09:58:55;26.50;99.90
7574;DHT22;3828;48.922;9.116;2022-10-16T10:01:26;26.60;99.90
7574;DHT22;3828;48.922;9.116;2022-10-16T10:03:56;26.80;99.90
7574;DHT22;3828;48.922;9.116;2022-10-16T10:06:29;26.10;99.90
7574;DHT22;3828;48.922;9.116;2022-10-16T10:09:05;26.50;99.90
7574;DHT22;3828;48.922;9.116;2022-10-16T10:11:40;26.30;99.90
7574;DHT22;3828;48.922;9.116;2022-10-16T10:14:27;26.50;99.90
7574;DHT22;3828;48.922;9.116;2022-10-16T10:17:10;26.50;99.90
7574;DHT22;3828;48.922;9.116;2022-10-16T10:19:41;27.10;99.90
7574;DHT22;3828;48.922;9.116;2022-10-16T10:22:31;27.20;99.90
7574;DHT22;3828;48.922;9.116;2022-10-16T10:28:13;26.10;99.90
7574;DHT22;3828;48.922;9.116;2022-10-16T10:30:48;25.30;99.90
7574;DHT22;3828;48.922;9.116;2022-10-16T10:33:22;25.00;99.90
7574;DHT22;3828;48.922;9.116;2022-10-16T10:35:56;24.90;99.90
7574;DHT22;3828;48.922;9.116;2022-10-16T10:38:33;25.10;99.90
7574;DHT22;3828;48.922;9.116;2022-10-16T10:41:27;24.70;99.90
7574;DHT22;3828;48.922;9.116;2022-10-16T10:44:06;24.30;99.90
7574;DHT22;3828;48.922;9.116;2022-10-16T10:46:36;23.90;99.90
7574;DHT22;3828;48.922;9.116;2022-10-16T10:49:16;23.60;99.90
7574;DHT22;3828;48.922;9.116;2022-10-16T10:51:54;23.20;99.90
7574;DHT22;3828;48.922;9.116;2022-10-16T10:54:31;23.20;99.90
7574;DHT22;3828;48.922;9.116;2022-10-16T10:57:08;23.00;99.90
7574;DHT22;3828;48.922;9.116;2022-10-16T11:02:42;23.80;99.90
7574;DHT22;3828;48.922;9.116;2022-10-16T11:05:31;24.40;99.90
7574;DHT22;3828;48.922;9.116;2022-10-16T11:08:02;24.80;99.90
7574;DHT22;3828;48.922;9.116;2022-10-16T11:10:38;25.30;99.90
7574;DHT22;3828;48.922;9.116;2022-10-16T11:13:19;25.70;99.90
7574;DHT22;3828;48.922;9.116;2022-10-16T11:15:51;26.10;99.90
7574;DHT22;3828;48.922;9.116;2022-10-16T11:18:24;26.60;99.90
7574;DHT22;3828;48.922;9.116;2022-10-16T11:20:56;27.50;99.90
7574;DHT22;3828;48.922;9.116;2022-10-16T11:23:26;28.30;99.90
7574;DHT22;3828;48.922;9.116;2022-10-16T11:26:00;29.00;99.90
7574;DHT22;3828;48.922;9.116;2022-10-16T11:28:32;28.80;99.90
7574;DHT22;3828;48.922;9.116;2022-10-16T11:31:05;28.90;99.90
7574;DHT22;3828;48.922;9.116;2022-10-16T11:33:39;28.30;99.90
7574;DHT22;3828;48.922;9.116;2022-10-16T11:36:12;28.60;99.90
7574;DHT22;3828;48.922;9.116;2022-10-16T11:38:46;28.90;99.90
7574;DHT22;3828;48.922;9.116;2022-10-16T11:41:24;29.60;99.90
7574;DHT22;3828;48.922;9.116;2022-10-16T11:44:03;30.00;99.90
7574;DHT22;3828;48.922;9.116;2022-10-16T11:46:34;30.80;99.90
7574;DHT22;3828;48.922;9.116;2022-10-16T11:49:08;30.20;99.90
7574;DHT22;3828;48.922;9.116;2022-10-16T11:51:39;30.10;99.90
7574;DHT22;3828;48.922;9.116;2022-10-16T11:54:16;29.60;99.90
7574;DHT22;3828;48.922;9.116;2022-10-16T11:56:50;29.40;99.90
7574;DHT22;3828;48.922;9.116;2022-10-16T11:59:26;29.10;99.90
7574;DHT22;3828;48.922;9.116;2022-10-16T12:01:59;28.10;99.90
7574;DHT22;3828;48.922;9.116;2022-10-16T12:04:39;27.20;99.90
7574;DHT22;3828;48.922;9.116;2022-10-16T12:07:13;25.40;99.90
7574;DHT22;3828;48.922;9.116;2022-10-16T12:09:41;26.80;99.90
7574;DHT22;3828;48.922;9.116;2022-10-16T12:12:25;26.60;99.90
7574;DHT22;3828;48.922;9.116;2022-10-16T12:15:00;26.80;99.90
7574;DHT22;3828;48.922;9.116;2022-10-16T12:17:34;26.70;99.90
7574;DHT22;3828;48.922;9.116;2022-10-16T12:20:20;26.50;99.90
7574;DHT22;3828;48.922;9.116;2022-10-16T12:22:49;26.50;99.90
7574;DHT22;3828;48.922;9.116;2022-10-16T12:25:24;26.50;99.90
7574;DHT22;3828;48.922;9.116;2022-10-16T12:28:03;26.60;99.90
7574;DHT22;3828;48.922;9.116;2022-10-16T12:30:33;26.70;99.90
7574;DHT22;3828;48.922;9.116;2022-10-16T12:33:02;26.90;99.90
7574;DHT22;3828;48.922;9.116;2022-10-16T12:35:31;26.50;99.90
7574;DHT22;3828;48.922;9.116;2022-10-16T12:38:07;26.30;99.90
7574;DHT22;3828;48.922;9.116;2022-10-16T12:40:37;26.50;99.90
7574;DHT22;3828;48.922;9.116;2022-10-16T12:43:26;26.30;99.90
7574;DHT22;3828;48.922;9.116;2022-10-16T12:46:01;26.00;99.90
7574;DHT22;3828;48.922;9.116;2022-10-16T12:48:28;25.40;99.90
7574;DHT22;3828;48.922;9.116;2022-10-16T12:50:55;25.30;99.90
7574;DHT22;3828;48.922;9.116;2022-10-16T12:53:23;26.10;99.90
7574;DHT22;3828;48.922;9.116;2022-10-16T12:55:58;27.30;99.90
7574;DHT22;3828;48.922;9.116;2022-10-16T12:58:50;28.60;99.90
7574;DHT22;3828;48.922;9.116;2022-10-16T13:01:37;29.10;99.90
7574;DHT22;3828;48.922;9.116;2022-10-16T13:04:28;28.70;99.90
7574;DHT22;3828;48.922;9.116;2022-10-16T13:07:09;27.90;99.90
7574;DHT22;3828;48.922;9.116;2022-10-16T13:09:50;27.10;99.90
7574;DHT22;3828;48.922;9.116;2022-10-16T13:12:57;25.90;99.90
7574;DHT22;3828;48.922;9.116;2022-10-16T13:15:46;25.40;99.90
7574;DHT22;3828;48.922;9.116;2022-10-16T13:18:18;25.00;99.90
7574;DHT22;3828;48.922;9.116;2022-10-16T13:21:04;24.80;99.90
7574;DHT22;3828;48.922;9.116;2022-10-16T13:23:41;24.50;99.90
7574;DHT22;3828;48.922;9.116;2022-10-16T13:26:19;24.30;99.90
7574;DHT22;3828;48.922;9.116;2022-10-16T13:28:48;24.10;99.90
7574;DHT22;3828;48.922;9.116;2022-10-16T13:31:20;23.80;99.90
7574;DHT22;3828;48.922;9.116;2022-10-16T13:33:50;23.80;99.90
7574;DHT22;3828;48.922;9.116;2022-10-16T13:36:22;23.60;99.90
7574;DHT22;3828;48.922;9.116;2022-10-16T13:39:00;25.10;99.90
7574;DHT22;3828;48.922;9.116;2022-10-16T13:41:27;24.50;99.90
7574;DHT22;3828;48.922;9.116;2022-10-16T13:43:54;25.40;99.90
7574;DHT22;3828;48.922;9.116;2022-10-16T13:46:25;25.90;99.90
7574;DHT22;3828;48.922;9.116;2022-10-16T13:48:58;25.80;99.90
7574;DHT22;3828;48.922;9.116;2022-10-16T13:51:26;25.50;99.90
7574;DHT22;3828;48.922;9.116;2022-10-16T13:53:55;25.20;99.90
7574;DHT22;3828;48.922;9.116;2022-10-16T13:56:24;25.70;99.90
7574;DHT22;3828;48.922;9.116;2022-10-16T13:58:59;27.00;99.90
7574;DHT22;3828;48.922;9.116;2022-10-16T14:01:29;27.50;99.90
7574;DHT22;3828;48.922;9.116;2022-10-16T14:04:05;27.50;99.90
7574;DHT22;3828;48.922;9.116;2022-10-16T14:06:33;27.60;99.90
7574;DHT22;3828;48.922;9.116;2022-10-16T14:09:05;27.50;99.90
7574;DHT22;3828;48.922;9.116;2022-10-16T14:11:33;27.40;99.90
7574;DHT22;3828;48.922;9.116;2022-10-16T14:14:02;26.70;99.90
7574;DHT22;3828;48.922;9.116;2022-10-16T14:16:31;26.40;99.90
7574;DHT22;3828;48.922;9.116;2022-10-16T14:19:00;26.20;99.90
7574;DHT22;3828;48.922;9.116;2022-10-16T14:21:28;26.00;99.90
7574;DHT22;3828;48.922;9.116;2022-10-16T14:23:55;25.60;99.90
7574;DHT22;3828;48.922;9.116;2022-10-16T14:26:23;25.20;99.90
7574;DHT22;3828;48.922;9.116;2022-10-16T14:29:10;24.90;99.90
7574;DHT22;3828;48.922;9.116;2022-10-16T14:31:39;24.40;99.90
7574;DHT22;3828;48.922;9.116;2022-10-16T14:34:28;24.00;99.90
7574;DHT22;3828;48.922;9.116;2022-10-16T14:36:56;23.70;99.90
7574;DHT22;3828;48.922;9.116;2022-10-16T14:39:25;23.70;99.90
7574;DHT22;3828;48.922;9.116;2022-10-16T14:41:55;23.50;99.90
7574;DHT22;3828;48.922;9.116;2022-10-16T14:44:28;23.50;99.90
7574;DHT22;3828;48.922;9.116;2022-10-16T14:46:57;23.90;99.90
7574;DHT22;3828;48.922;9.116;2022-10-16T14:49:25;24.60;99.90
7574;DHT22;3828;48.922;9.116;2022-10-16T14:51:53;24.70;99.90
7574;DHT22;3828;48.922;9.116;2022-10-16T14:54:20;25.00;99.90
7574;DHT22;3828;48.922;9.116;2022-10-16T14:56:49;24.60;99.90
7574;DHT22;3828;48.922;9.116;2022-10-16T14:59:19;24.70;99.90
7574;DHT22;3828;48.922;9.116;2022-10-16T15:01:49;24.80;99.90
7574;DHT22;3828;48.922;9.116;2022-10-16T15:04:18;25.40;99.90
7574;DHT22;3828;48.922;9.116;2022-10-16T15:06:44;26.10;99.90
7574;DHT22;3828;48.922;9.116;2022-10-16T15:09:11;26.90;99.90
7574;DHT22;3828;48.922;9.116;2022-10-16T15:11:38;27.60;99.90
7574;DHT22;3828;48.922;9.116;2022-10-16T15:14:05;27.80;99.90
7574;DHT22;3828;48.922;9.116;2022-10-16T15:16:32;27.90;99.90
7574;DHT22;3828;48.922;9.116;2022-10-16T15:18:59;27.60;99.90
7574;DHT22;3828;48.922;9.116;2022-10-16T15:21:28;27.10;99.90
7574;DHT22;3828;48.922;9.116;2022-10-16T15:23:55;26.60;99.90
7574;DHT22;3828;48.922;9.116;2022-10-16T15:26:23;25.70;99.90
7574;DHT22;3828;48.922;9.116;2022-10-16T15:28:50;25.10;99.90
7574;DHT22;3828;48.922;9.116;2022-10-16T15:31:16;24.50;99.90
7574;DHT22;3828;48.922;9.116;2022-10-16T15:33:43;24.00;99.90
7574;DHT22;3828;48.922;9.116;2022-10-16T15:36:16;23.50;99.90
7574;DHT22;3828;48.922;9.116;2022-10-16T15:38:44;23.20;99.90
7574;DHT22;3828;48.922;9.116;2022-10-16T15:41:11;23.00;99.90
7574;DHT22;3828;48.922;9.116;2022-10-16T15:43:38;22.80;99.90
7574;DHT22;3828;48.922;9.116;2022-10-16T15:46:08;22.70;99.90
7574;DHT22;3828;48.922;9.116;2022-10-16T15:48:36;22.50;99.90
7574;DHT22;3828;48.922;9.116;2022-10-16T15:51:05;22.40;99.90
7574;DHT22;3828;48.922;9.116;2022-10-16T15:53:32;22.30;99.90
7574;DHT22;3828;48.922;9.116;2022-10-16T15:56:02;22.20;99.90
7574;DHT22;3828;48.922;9.116;2022-10-16T15:58:29;22.10;99.90
7574;DHT22;3828;48.922;9.116;2022-10-16T16:00:56;21.90;99.90
7574;DHT22;3828;48.922;9.116;2022-10-16T16:03:25;21.80;99.90
7574;DHT22;3828;48.922;9.116;2022-10-16T16:05:52;21.70;99.90
7574;DHT22;3828;48.922;9.116;2022-10-16T16:08:19;21.70;99.90
7574;DHT22;3828;48.922;9.116;2022-10-16T16:10:58;21.70;99.90
7574;DHT22;3828;48.922;9.116;2022-10-16T16:13:27;21.70;99.90
7574;DHT22;3828;48.922;9.116;2022-10-16T16:15:55;21.50;99.90
7574;DHT22;3828;48.922;9.116;2022-10-16T16:18:22;21.30;99.90
7574;DHT22;3828;48.922;9.116;2022-10-16T16:20:49;21.10;99.90
7574;DHT22;3828;48.922;9.116;2022-10-16T16:23:16;20.90;99.90
7574;DHT22;3828;48.922;9.116;2022-10-16T16:25:43;20.70;99.90
7574;DHT22;3828;48.922;9.116;2022-10-16T16:28:10;20.50;99.90